createdAt,value
2023-10-05T00:03:00.332Z,54.21
2023-10-05T00:07:01.842Z,54.05
2023-10-05T00:11:07.619Z,54.30
2023-10-05T00:15:09.475Z,54.58
2023-10-05T00:19:13.580Z,54.14
2023-10-05T00:23:15.261Z,54.64
2023-10-05T00:27:16.704Z,54.32
2023-10-05T00:31:27.399Z,54.38
2023-10-05T00:35:30.412Z,54.31
2023-10-05T00:39:32.259Z,53.96
2023-10-05T00:43:33.682Z,54.03
2023-10-05T00:47:35.914Z,54.19
2023-10-05T00:51:37.849Z,53.72
2023-10-05T00:55:40.915Z,53.51
2023-10-05T00:59:45.521Z,54.24
2023-10-05T01:04:07.292Z,53.66
2023-10-05T01:08:16.451Z,52.93
2023-10-05T01:12:20.978Z,53.33
2023-10-05T01:16:23.239Z,53.28
2023-10-05T01:20:26.160Z,53.67
2023-10-05T01:24:28.779Z,53.87
2023-10-05T01:28:30.205Z,53.71
2023-10-05T01:32:34.039Z,53.42
2023-10-05T01:36:35.964Z,53.52
2023-10-05T01:40:37.401Z,53.28
2023-10-05T01:44:41.554Z,53.92
2023-10-05T01:48:43.894Z,53.24
2023-10-05T01:52:57.034Z,53.38
2023-10-05T01:57:02.429Z,52.86
2023-10-05T02:01:04.899Z,53.22
2023-10-05T02:05:08.175Z,53.18
2023-10-05T02:09:15.159Z,52.84
2023-10-05T02:13:17.913Z,52.45
2023-10-05T02:17:20.384Z,52.13
2023-10-05T02:21:31.028Z,52.38
2023-10-05T02:25:35.107Z,52.00
2023-10-05T02:29:41.049Z,52.24
2023-10-05T02:33:44.246Z,52.48
2023-10-05T02:37:49.910Z,52.57
2023-10-05T02:41:57.439Z,52.66
2023-10-05T02:46:11.065Z,52.56
2023-10-05T02:50:12.998Z,53.24
2023-10-05T02:54:15.462Z,52.77
2023-10-05T02:58:17.520Z,52.70
2023-10-05T03:02:19.482Z,53.15
2023-10-05T03:06:23.812Z,53.08
2023-10-05T03:10:25.562Z,52.73
2023-10-05T03:14:28.423Z,53.36
2023-10-05T03:18:29.748Z,53.25
2023-10-05T03:22:31.118Z,53.13
2023-10-05T03:26:32.520Z,53.26
2023-10-05T03:30:36.616Z,53.16
2023-10-05T03:34:38.330Z,53.04
2023-10-05T03:38:40.764Z,53.49
2023-10-05T03:42:43.300Z,53.70
2023-10-05T03:46:48.149Z,53.45
2023-10-05T03:50:49.525Z,53.43
2023-10-05T03:54:50.946Z,53.82
2023-10-05T03:58:53.709Z,53.65
2023-10-05T04:02:55.546Z,53.42
2023-10-05T04:06:59.509Z,53.38
2023-10-05T04:11:00.916Z,53.12
2023-10-05T04:15:02.632Z,53.19
2023-10-05T04:19:05.855Z,53.77
2023-10-05T04:23:08.535Z,53.51
2023-10-05T04:27:11.788Z,53.98
2023-10-05T04:31:15.286Z,53.55
2023-10-05T04:35:23.867Z,53.39
2023-10-05T04:39:30.800Z,53.29
2023-10-05T04:43:32.274Z,53.49
2023-10-05T04:47:34.260Z,53.60
2023-10-05T04:51:39.502Z,53.60
2023-10-05T04:55:46.109Z,54.31
2023-10-05T04:59:59.997Z,54.12
2023-10-05T05:04:28.307Z,54.33
2023-10-05T05:08:31.327Z,54.23
2023-10-05T05:12:32.811Z,53.83
2023-10-05T05:16:34.764Z,54.33
2023-10-05T05:20:36.183Z,54.28
2023-10-05T05:24:38.563Z,54.40
2023-10-05T05:28:40.226Z,54.31
2023-10-05T05:32:45.155Z,54.85
2023-10-05T05:36:46.575Z,54.63
2023-10-05T05:40:50.512Z,54.67
2023-10-05T05:44:53.614Z,54.64
2023-10-05T05:48:55.015Z,54.40
2023-10-05T05:52:57.850Z,54.52
2023-10-05T05:56:59.266Z,54.85
2023-10-05T06:01:01.070Z,54.50
2023-10-05T06:05:02.861Z,54.23
2023-10-05T06:09:08.424Z,53.90
2023-10-05T06:13:13.414Z,53.94
2023-10-05T06:17:14.860Z,53.83
2023-10-05T06:21:16.661Z,54.32
2023-10-05T06:25:18.905Z,54.04
2023-10-05T06:29:20.280Z,53.31
2023-10-05T06:33:21.858Z,53.54
2023-10-05T06:37:23.243Z,53.25
2023-10-05T06:41:24.607Z,53.40
2023-10-05T06:45:26.050Z,53.24
2023-10-05T06:49:28.476Z,52.79
2023-10-05T06:53:29.904Z,52.46
2023-10-05T06:57:31.284Z,52.54
2023-10-05T07:01:36.065Z,52.52
2023-10-05T07:05:37.722Z,52.13
2023-10-05T07:09:39.171Z,51.78
2023-10-05T07:13:40.542Z,51.76
2023-10-05T07:17:42.571Z,51.80
2023-10-05T07:21:44.070Z,51.95
2023-10-05T07:25:45.579Z,52.14
2023-10-05T07:29:47.118Z,51.87
2023-10-05T07:33:48.771Z,51.73
2023-10-05T07:37:50.131Z,51.35
2023-10-05T07:41:51.540Z,50.75
2023-10-05T07:45:52.934Z,51.38
2023-10-05T07:49:55.148Z,51.02
2023-10-05T07:53:56.567Z,51.03
2023-10-05T07:57:58.342Z,50.92
2023-10-05T08:01:59.873Z,50.10
2023-10-05T08:06:02.497Z,50.09
2023-10-05T08:10:04.433Z,48.77
2023-10-05T08:14:05.974Z,48.08
2023-10-05T08:18:07.598Z,46.69
2023-10-05T08:22:10.189Z,46.30
2023-10-05T08:26:11.784Z,45.02
2023-10-05T08:30:13.688Z,44.04
2023-10-05T08:34:24.034Z,42.41
2023-10-05T08:38:25.642Z,41.54
2023-10-05T08:42:28.943Z,41.39
2023-10-05T08:46:33.635Z,40.95
2023-10-05T08:50:36.291Z,40.46
2023-10-05T08:54:39.343Z,41.13
2023-10-05T08:58:48.680Z,40.53
2023-10-05T09:02:51.207Z,42.18
2023-10-05T09:06:56.384Z,42.10
2023-10-05T09:11:00.421Z,42.46
2023-10-05T09:15:20.452Z,43.47
2023-10-05T09:19:30.895Z,43.07
2023-10-05T09:23:32.721Z,42.24
2023-10-05T09:27:52.973Z,42.59
2023-10-05T09:31:59.245Z,44.04
2023-10-05T09:36:17.488Z,43.41
2023-10-05T09:40:19.206Z,44.48
2023-10-05T09:44:23.229Z,44.16
2023-10-05T09:48:25.944Z,43.41
2023-10-05T09:52:35.971Z,43.48
2023-10-05T09:56:44.648Z,43.86
2023-10-05T10:00:46.735Z,43.23
2023-10-05T10:04:49.094Z,44.01
2023-10-05T10:08:55.120Z,44.00
2023-10-05T10:12:57.297Z,43.65
2023-10-05T10:17:02.305Z,44.05
2023-10-05T10:21:09.652Z,43.38
2023-10-05T10:25:31.573Z,43.14
2023-10-05T10:29:46.010Z,43.18
2023-10-05T10:33:56.326Z,42.92
2023-10-05T10:38:00.250Z,42.67
2023-10-05T10:42:07.299Z,42.96
2023-10-05T10:46:15.664Z,42.69
2023-10-05T10:50:23.458Z,43.16
2023-10-05T10:54:25.518Z,42.89
2023-10-05T10:58:31.573Z,42.65
2023-10-05T11:02:39.616Z,43.17
2023-10-05T11:06:41.936Z,42.31
2023-10-05T11:10:44.001Z,42.12
2023-10-05T11:14:46.476Z,42.38
2023-10-05T11:19:07.617Z,41.27
2023-10-05T11:23:13.942Z,41.51
2023-10-05T11:27:17.056Z,40.65
2023-10-05T11:31:59.109Z,41.01
2023-10-05T11:35:50.818Z,40.74
2023-10-05T11:40:00.083Z,40.73
2023-10-05T11:44:03.869Z,40.72
2023-10-05T11:48:13.651Z,40.36
2023-10-05T11:52:17.910Z,39.99
2023-10-05T11:56:19.487Z,40.38
2023-10-05T12:00:21.276Z,39.25
2023-10-05T12:04:25.073Z,39.68
2023-10-05T12:08:26.583Z,39.25
2023-10-05T12:12:27.936Z,39.86
2023-10-05T12:16:34.254Z,39.76
2023-10-05T12:20:35.941Z,39.77
2023-10-05T12:24:38.627Z,40.31
2023-10-05T12:28:42.276Z,40.95
2023-10-05T12:32:43.694Z,40.58
2023-10-05T12:36:49.917Z,41.26
2023-10-05T12:40:51.356Z,40.46
2023-10-05T12:44:52.752Z,40.40
2023-10-05T12:48:54.169Z,40.94
2023-10-05T12:52:57.224Z,41.01
2023-10-05T12:57:17.755Z,40.79
2023-10-05T13:01:21.424Z,41.23
2023-10-05T13:05:31.684Z,40.06
2023-10-05T13:09:36.202Z,39.88
2023-10-05T13:13:37.737Z,39.41
2023-10-05T13:17:39.728Z,40.45
2023-10-05T13:21:43.840Z,40.11
2023-10-05T13:25:45.704Z,39.35
2023-10-05T13:29:50.098Z,39.50
2023-10-05T13:33:55.816Z,39.47
2023-10-05T13:37:59.071Z,38.97
2023-10-05T13:42:10.745Z,38.73
2023-10-05T13:46:20.304Z,38.59
2023-10-05T13:50:23.431Z,39.26
2023-10-05T13:54:24.841Z,40.81
2023-10-05T13:58:26.227Z,38.71
2023-10-05T14:02:28.278Z,38.95
2023-10-05T14:06:30.673Z,39.73
2023-10-05T14:10:32.320Z,39.93
2023-10-05T14:14:33.786Z,39.99
2023-10-05T14:18:35.242Z,39.29
2023-10-05T14:22:36.722Z,39.64
2023-10-05T14:26:38.268Z,39.96
2023-10-05T14:30:41.375Z,39.47
2023-10-05T14:34:43.282Z,39.31
2023-10-05T14:38:44.723Z,39.72
2023-10-05T14:42:48.725Z,39.43
2023-10-05T14:46:53.206Z,39.63
2023-10-05T14:50:54.614Z,38.86
2023-10-05T14:54:56.040Z,39.35
2023-10-05T14:58:57.934Z,40.02
2023-10-05T15:03:00.623Z,39.65
2023-10-05T15:07:02.059Z,40.21
2023-10-05T15:11:06.927Z,40.55
2023-10-05T15:15:11.074Z,40.85
2023-10-05T15:19:12.507Z,40.66
2023-10-05T15:23:14.434Z,41.03
2023-10-05T15:27:16.678Z,40.63
2023-10-05T15:31:19.364Z,40.50
2023-10-05T15:35:21.317Z,41.55
2023-10-05T15:39:22.660Z,42.08
2023-10-05T15:43:24.654Z,41.59
2023-10-05T15:47:29.558Z,42.69
2023-10-05T15:51:32.352Z,42.74
2023-10-05T15:55:34.689Z,43.04
2023-10-05T15:59:36.124Z,43.67
2023-10-05T16:03:37.595Z,43.74
2023-10-05T16:07:40.460Z,43.85
2023-10-05T16:11:42.335Z,43.92
2023-10-05T16:15:43.652Z,44.72
2023-10-05T16:19:45.179Z,44.72
2023-10-05T16:23:46.537Z,45.04
2023-10-05T16:27:49.413Z,44.99
2023-10-05T16:31:52.958Z,45.03
2023-10-05T16:35:55.632Z,45.06
2023-10-05T16:39:59.945Z,45.46
2023-10-05T16:44:01.338Z,45.58
2023-10-05T16:48:02.763Z,45.62
2023-10-05T16:52:04.338Z,45.75
2023-10-05T16:56:05.720Z,45.89
2023-10-05T17:00:23.809Z,46.36
2023-10-05T17:04:25.440Z,46.74
2023-10-05T17:08:28.342Z,46.23
2023-10-05T17:12:29.809Z,46.69
2023-10-05T17:16:31.290Z,47.27
2023-10-05T17:20:33.380Z,47.32
2023-10-05T17:24:34.857Z,48.01
2023-10-05T17:28:36.206Z,48.05
2023-10-05T17:32:39.626Z,47.89
2023-10-05T17:36:41.890Z,48.40
2023-10-05T17:40:56.661Z,48.55
2023-10-05T17:44:58.221Z,48.70
2023-10-05T17:49:00.311Z,48.19
2023-10-05T17:53:01.711Z,48.42
2023-10-05T17:57:05.361Z,48.57
2023-10-05T18:01:06.718Z,48.81
2023-10-05T18:05:10.442Z,48.44
2023-10-05T18:09:12.281Z,48.97
2023-10-05T18:13:13.638Z,49.11
2023-10-05T18:17:16.200Z,49.20
2023-10-05T18:21:18.343Z,49.22
2023-10-05T18:25:21.885Z,48.67
2023-10-05T18:29:23.273Z,48.95
2023-10-05T18:33:24.751Z,49.14
2023-10-05T18:37:28.006Z,49.60
2023-10-05T18:41:29.586Z,49.96
2023-10-05T18:45:31.212Z,49.82
2023-10-05T18:49:32.846Z,49.92
2023-10-05T18:53:38.523Z,50.03
2023-10-05T18:57:40.378Z,50.10
2023-10-05T19:01:42.646Z,49.98
2023-10-05T19:05:44.122Z,50.17
2023-10-05T19:09:45.491Z,50.18
2023-10-05T19:13:47.040Z,50.35
2023-10-05T19:17:48.469Z,50.73
2023-10-05T19:21:49.931Z,51.01
2023-10-05T19:25:59.456Z,50.98
2023-10-05T19:30:01.294Z,51.01
2023-10-05T19:34:02.618Z,51.44
2023-10-05T19:38:04.089Z,51.75
2023-10-05T19:42:07.389Z,52.18
2023-10-05T19:46:08.785Z,51.85
2023-10-05T19:50:11.576Z,51.75
2023-10-05T19:54:15.049Z,52.26
2023-10-05T19:58:19.163Z,52.43
2023-10-05T20:02:20.787Z,52.57
2023-10-05T20:06:22.209Z,52.46
2023-10-05T20:10:29.363Z,52.79
2023-10-05T20:14:31.040Z,52.72
2023-10-05T20:18:37.516Z,52.64
2023-10-05T20:22:39.950Z,53.25
2023-10-05T20:26:41.489Z,53.25
2023-10-05T20:30:42.912Z,53.23
2023-10-05T20:34:57.545Z,53.04
2023-10-05T20:38:58.953Z,53.43
2023-10-05T20:43:00.730Z,53.50
2023-10-05T20:47:02.240Z,53.31
2023-10-05T20:51:06.988Z,53.65
2023-10-05T20:55:08.956Z,53.64
2023-10-05T20:59:10.294Z,53.58
2023-10-05T21:03:14.719Z,53.84
2023-10-05T21:07:16.339Z,53.46
2023-10-05T21:11:20.903Z,53.40
2023-10-05T21:15:23.458Z,53.98
2023-10-05T21:19:24.841Z,54.21
2023-10-05T21:23:26.288Z,54.37
2023-10-05T21:27:28.490Z,54.88
2023-10-05T21:31:29.864Z,55.08
2023-10-05T21:35:31.233Z,55.23
2023-10-05T21:39:33.675Z,55.27
2023-10-05T21:43:35.085Z,55.26
2023-10-05T21:47:36.504Z,55.44
2023-10-05T21:51:37.847Z,55.27
2023-10-05T21:55:39.333Z,55.81
2023-10-05T21:59:40.664Z,56.06
2023-10-05T22:03:42.261Z,56.11
2023-10-05T22:07:45.967Z,56.54
2023-10-05T22:11:47.423Z,56.60
2023-10-05T22:15:50.266Z,56.42
2023-10-05T22:19:51.666Z,56.39
2023-10-05T22:23:53.012Z,56.26
2023-10-05T22:27:54.514Z,56.54
2023-10-05T22:31:55.907Z,56.37
2023-10-05T22:35:57.701Z,56.30
2023-10-05T22:39:59.042Z,56.59
2023-10-05T22:44:00.412Z,57.11
2023-10-05T22:48:02.106Z,57.60
2023-10-05T22:52:03.796Z,57.52
2023-10-05T22:56:05.309Z,57.63
2023-10-05T23:00:07.294Z,58.10
2023-10-05T23:04:08.957Z,57.30
2023-10-05T23:08:12.651Z,57.62
2023-10-05T23:12:14.676Z,58.22
2023-10-05T23:16:18.763Z,58.36
2023-10-05T23:20:26.167Z,58.28
2023-10-05T23:24:28.455Z,58.08
2023-10-05T23:28:29.829Z,57.91
2023-10-05T23:32:31.367Z,57.93
2023-10-05T23:36:34.707Z,58.02
2023-10-05T23:40:37.116Z,57.91
2023-10-05T23:44:39.923Z,58.10
2023-10-05T23:48:41.688Z,58.60
2023-10-05T23:52:45.363Z,58.34
2023-10-05T23:56:46.791Z,58.83
